sensor_id;sensor_type;location;lat;lon;timestamp;P1;durP1;ratioP1;P2;durP2;ratioP2
76094;SDS011;64821;13.710;100.604;2023-07-24T00:00:12;8.27;;;4.65;;
76094;SDS011;64821;13.710;100.604;2023-07-24T00:01:16;9.07;;;4.67;;
76094;SDS011;64821;13.710;100.604;2023-07-24T00:02:20;8.75;;;4.88;;
76094;SDS011;64821;13.710;100.604;2023-07-24T00:03:24;10.50;;;5.07;;
76094;SDS011;64821;13.710;100.604;2023-07-24T00:04:27;8.15;;;4.80;;
76094;SDS011;64821;13.710;100.604;2023-07-24T00:05:33;9.77;;;5.25;;
76094;SDS011;64821;13.710;100.604;2023-07-24T00:06:37;10.13;;;6.33;;
76094;SDS011;64821;13.710;100.604;2023-07-24T00:07:41;10.00;;;5.70;;
76094;SDS011;64821;13.710;100.604;2023-07-24T00:08:45;9.93;;;5.10;;
76094;SDS011;64821;13.710;100.604;2023-07-24T00:09:48;11.98;;;5.07;;
76094;SDS011;64821;13.710;100.604;2023-07-24T00:10:52;10.00;;;5.00;;
76094;SDS011;64821;13.710;100.604;2023-07-24T00:12:03;10.50;;;4.83;;
76094;SDS011;64821;13.710;100.604;2023-07-24T00:13:09;9.55;;;5.00;;
76094;SDS011;64821;13.710;100.604;2023-07-24T00:14:14;9.38;;;4.63;;
76094;SDS011;64821;13.710;100.604;2023-07-24T00:15:18;9.10;;;4.75;;
76094;SDS011;64821;13.710;100.604;2023-07-24T00:16:22;9.38;;;4.65;;
76094;SDS011;64821;13.710;100.604;2023-07-24T00:17:25;10.03;;;5.00;;
76094;SDS011;64821;13.710;100.604;2023-07-24T00:18:29;10.05;;;4.90;;
76094;SDS011;64821;13.710;100.604;2023-07-24T00:19:33;8.85;;;5.05;;
76094;SDS011;64821;13.710;100.604;2023-07-24T00:20:37;8.75;;;4.80;;
76094;SDS011;64821;13.710;100.604;2023-07-24T00:21:41;7.68;;;4.63;;
76094;SDS011;64821;13.710;100.604;2023-07-24T00:22:44;9.97;;;4.50;;
76094;SDS011;64821;13.710;100.604;2023-07-24T00:23:48;7.93;;;4.60;;
76094;SDS011;64821;13.710;100.604;2023-07-24T00:24:52;8.32;;;4.78;;
76094;SDS011;64821;13.710;100.604;2023-07-24T00:25:56;9.15;;;4.60;;
76094;SDS011;64821;13.710;100.604;2023-07-24T00:26:59;8.25;;;4.70;;
76094;SDS011;64821;13.710;100.604;2023-07-24T00:28:03;10.27;;;4.53;;
76094;SDS011;64821;13.710;100.604;2023-07-24T00:29:08;8.38;;;4.25;;
76094;SDS011;64821;13.710;100.604;2023-07-24T00:30:12;9.32;;;4.38;;
76094;SDS011;64821;13.710;100.604;2023-07-24T00:31:16;9.43;;;4.55;;
76094;SDS011;64821;13.710;100.604;2023-07-24T00:32:20;8.50;;;4.72;;
76094;SDS011;64821;13.710;100.604;2023-07-24T00:33:24;8.93;;;4.73;;
76094;SDS011;64821;13.710;100.604;2023-07-24T00:34:27;11.13;;;4.82;;
76094;SDS011;64821;13.710;100.604;2023-07-24T00:35:31;8.45;;;4.60;;
76094;SDS011;64821;13.710;100.604;2023-07-24T00:36:35;8.82;;;4.55;;
76094;SDS011;64821;13.710;100.604;2023-07-24T00:37:39;7.95;;;4.40;;
76094;SDS011;64821;13.710;100.604;2023-07-24T00:38:43;7.50;;;4.17;;
76094;SDS011;64821;13.710;100.604;2023-07-24T00:39:47;7.88;;;4.28;;
76094;SDS011;64821;13.710;100.604;2023-07-24T00:40:51;9.15;;;4.43;;
76094;SDS011;64821;13.710;100.604;2023-07-24T00:41:55;8.38;;;4.53;;
76094;SDS011;64821;13.710;100.604;2023-07-24T00:42:59;10.20;;;5.30;;
76094;SDS011;64821;13.710;100.604;2023-07-24T00:44:02;9.33;;;4.90;;
76094;SDS011;64821;13.710;100.604;2023-07-24T00:45:08;8.65;;;4.00;;
76094;SDS011;64821;13.710;100.604;2023-07-24T00:46:12;7.78;;;4.20;;
76094;SDS011;64821;13.710;100.604;2023-07-24T00:47:17;9.75;;;4.40;;
76094;SDS011;64821;13.710;100.604;2023-07-24T00:48:21;8.00;;;4.20;;
76094;SDS011;64821;13.710;100.604;2023-07-24T00:49:25;7.40;;;4.00;;
76094;SDS011;64821;13.710;100.604;2023-07-24T00:50:30;7.57;;;3.75;;
76094;SDS011;64821;13.710;100.604;2023-07-24T00:51:33;8.38;;;3.78;;
76094;SDS011;64821;13.710;100.604;2023-07-24T00:52:38;8.35;;;4.28;;
76094;SDS011;64821;13.710;100.604;2023-07-24T00:53:42;8.38;;;3.80;;
76094;SDS011;64821;13.710;100.604;2023-07-24T00:54:46;8.30;;;4.07;;
76094;SDS011;64821;13.710;100.604;2023-07-24T00:55:50;7.30;;;4.10;;
76094;SDS011;64821;13.710;100.604;2023-07-24T00:56:54;8.98;;;3.80;;
76094;SDS011;64821;13.710;100.604;2023-07-24T00:57:58;8.27;;;3.80;;
76094;SDS011;64821;13.710;100.604;2023-07-24T00:59:02;9.70;;;3.80;;
76094;SDS011;64821;13.710;100.604;2023-07-24T01:00:08;8.10;;;3.73;;
76094;SDS011;64821;13.710;100.604;2023-07-24T01:01:13;7.88;;;3.35;;
76094;SDS011;64821;13.710;100.604;2023-07-24T01:02:20;7.38;;;3.65;;
76094;SDS011;64821;13.710;100.604;2023-07-24T01:03:31;8.07;;;3.80;;
76094;SDS011;64821;13.710;100.604;2023-07-24T01:04:36;8.98;;;4.15;;
76094;SDS011;64821;13.710;100.604;2023-07-24T01:05:40;8.23;;;4.00;;
76094;SDS011;64821;13.710;100.604;2023-07-24T01:06:44;7.90;;;3.72;;
76094;SDS011;64821;13.710;100.604;2023-07-24T01:07:48;7.82;;;3.60;;
76094;SDS011;64821;13.710;100.604;2023-07-24T01:08:51;7.85;;;3.90;;
76094;SDS011;64821;13.710;100.604;2023-07-24T01:09:55;7.53;;;3.55;;
76094;SDS011;64821;13.710;100.604;2023-07-24T01:11:01;7.23;;;3.30;;
76094;SDS011;64821;13.710;100.604;2023-07-24T01:12:13;7.28;;;3.72;;
76094;SDS011;64821;13.710;100.604;2023-07-24T01:13:25;7.35;;;3.47;;
76094;SDS011;64821;13.710;100.604;2023-07-24T01:14:36;7.20;;;3.63;;
76094;SDS011;64821;13.710;100.604;2023-07-24T01:15:48;7.57;;;3.65;;
76094;SDS011;64821;13.710;100.604;2023-07-24T01:16:55;8.50;;;3.50;;
76094;SDS011;64821;13.710;100.604;2023-07-24T01:18:03;8.05;;;3.10;;
76094;SDS011;64821;13.710;100.604;2023-07-24T01:19:12;7.60;;;3.38;;
76094;SDS011;64821;13.710;100.604;2023-07-24T01:20:22;7.32;;;3.10;;
76094;SDS011;64821;13.710;100.604;2023-07-24T01:21:30;8.10;;;3.35;;
76094;SDS011;64821;13.710;100.604;2023-07-24T01:22:51;6.73;;;3.50;;
76094;SDS011;64821;13.710;100.604;2023-07-24T01:24:09;7.25;;;3.10;;
76094;SDS011;64821;13.710;100.604;2023-07-24T01:25:27;7.07;;;3.58;;
76094;SDS011;64821;13.710;100.604;2023-07-24T01:26:39;7.18;;;3.22;;
76094;SDS011;64821;13.710;100.604;2023-07-24T01:27:43;6.97;;;3.10;;
76094;SDS011;64821;13.710;100.604;2023-07-24T01:28:47;6.47;;;3.10;;
76094;SDS011;64821;13.710;100.604;2023-07-24T01:29:51;7.43;;;3.17;;
76094;SDS011;64821;13.710;100.604;2023-07-24T01:30:55;7.10;;;3.05;;
76094;SDS011;64821;13.710;100.604;2023-07-24T01:31:59;7.25;;;2.97;;
76094;SDS011;64821;13.710;100.604;2023-07-24T01:33:03;8.07;;;3.17;;
76094;SDS011;64821;13.710;100.604;2023-07-24T01:34:07;7.03;;;3.03;;
76094;SDS011;64821;13.710;100.604;2023-07-24T01:35:11;6.68;;;3.20;;
76094;SDS011;64821;13.710;100.604;2023-07-24T01:36:15;7.57;;;2.90;;
76094;SDS011;64821;13.710;100.604;2023-07-24T01:37:21;6.63;;;2.83;;
76094;SDS011;64821;13.710;100.604;2023-07-24T01:38:27;7.85;;;3.15;;
76094;SDS011;64821;13.710;100.604;2023-07-24T01:39:33;6.93;;;2.80;;
76094;SDS011;64821;13.710;100.604;2023-07-24T01:40:38;6.88;;;2.90;;
76094;SDS011;64821;13.710;100.604;2023-07-24T01:41:44;7.07;;;2.70;;
76094;SDS011;64821;13.710;100.604;2023-07-24T01:42:48;7.00;;;3.15;;
76094;SDS011;64821;13.710;100.604;2023-07-24T01:43:52;6.90;;;2.90;;
76094;SDS011;64821;13.710;100.604;2023-07-24T01:44:56;8.57;;;2.60;;
76094;SDS011;64821;13.710;100.604;2023-07-24T01:46:00;7.00;;;2.60;;
76094;SDS011;64821;13.710;100.604;2023-07-24T01:47:04;6.95;;;2.83;;
76094;SDS011;64821;13.710;100.604;2023-07-24T01:48:08;6.30;;;2.58;;
76094;SDS011;64821;13.710;100.604;2023-07-24T01:49:12;5.70;;;2.50;;
76094;SDS011;64821;13.710;100.604;2023-07-24T01:50:16;6.67;;;2.80;;
76094;SDS011;64821;13.710;100.604;2023-07-24T01:51:20;6.53;;;2.60;;
76094;SDS011;64821;13.710;100.604;2023-07-24T01:52:23;6.70;;;2.58;;
76094;SDS011;64821;13.710;100.604;2023-07-24T01:53:27;6.30;;;2.50;;
76094;SDS011;64821;13.710;100.604;2023-07-24T01:54:31;8.05;;;3.10;;
76094;SDS011;64821;13.710;100.604;2023-07-24T01:55:35;7.60;;;2.67;;
76094;SDS011;64821;13.710;100.604;2023-07-24T01:56:38;6.60;;;2.63;;
76094;SDS011;64821;13.710;100.604;2023-07-24T01:57:44;6.00;;;2.60;;
76094;SDS011;64821;13.710;100.604;2023-07-24T01:58:48;6.85;;;2.90;;
76094;SDS011;64821;13.710;100.604;2023-07-24T01:59:51;6.60;;;2.60;;
76094;SDS011;64821;13.710;100.604;2023-07-24T02:00:55;6.00;;;2.57;;
76094;SDS011;64821;13.710;100.604;2023-07-24T02:01:59;6.43;;;2.88;;
76094;SDS011;64821;13.710;100.604;2023-07-24T02:03:03;7.22;;;2.60;;
76094;SDS011;64821;13.710;100.604;2023-07-24T02:04:07;6.90;;;2.08;;
76094;SDS011;64821;13.710;100.604;2023-07-24T02:05:11;6.38;;;2.53;;
76094;SDS011;64821;13.710;100.604;2023-07-24T02:06:14;7.07;;;2.60;;
76094;SDS011;64821;13.710;100.604;2023-07-24T02:07:18;7.13;;;2.40;;
76094;SDS011;64821;13.710;100.604;2023-07-24T02:08:22;6.72;;;2.50;;
76094;SDS011;64821;13.710;100.604;2023-07-24T02:09:26;7.47;;;2.85;;
76094;SDS011;64821;13.710;100.604;2023-07-24T02:10:29;6.32;;;2.30;;
76094;SDS011;64821;13.710;100.604;2023-07-24T02:11:33;8.43;;;2.20;;
76094;SDS011;64821;13.710;100.604;2023-07-24T02:12:37;7.45;;;2.42;;
76094;SDS011;64821;13.710;100.604;2023-07-24T02:13:42;6.38;;;2.38;;
76094;SDS011;64821;13.710;100.604;2023-07-24T02:14:47;6.82;;;2.70;;
76094;SDS011;64821;13.710;100.604;2023-07-24T02:15:51;6.78;;;2.08;;
76094;SDS011;64821;13.710;100.604;2023-07-24T02:16:54;7.40;;;2.67;;
76094;SDS011;64821;13.710;100.604;2023-07-24T02:17:58;7.85;;;2.58;;
76094;SDS011;64821;13.710;100.604;2023-07-24T02:19:02;8.75;;;2.50;;
76094;SDS011;64821;13.710;100.604;2023-07-24T02:20:06;6.38;;;2.40;;
76094;SDS011;64821;13.710;100.604;2023-07-24T02:21:10;6.60;;;2.40;;
76094;SDS011;64821;13.710;100.604;2023-07-24T02:22:14;6.20;;;2.40;;
76094;SDS011;64821;13.710;100.604;2023-07-24T02:23:18;6.90;;;2.40;;
76094;SDS011;64821;13.710;100.604;2023-07-24T02:24:22;8.98;;;2.75;;
76094;SDS011;64821;13.710;100.604;2023-07-24T02:25:26;6.90;;;2.95;;
76094;SDS011;64821;13.710;100.604;2023-07-24T02:26:30;6.65;;;2.30;;
76094;SDS011;64821;13.710;100.604;2023-07-24T02:27:33;6.57;;;2.40;;
76094;SDS011;64821;13.710;100.604;2023-07-24T02:28:37;6.47;;;2.40;;
76094;SDS011;64821;13.710;100.604;2023-07-24T02:29:43;6.65;;;2.33;;
76094;SDS011;64821;13.710;100.604;2023-07-24T02:30:46;6.65;;;2.63;;
76094;SDS011;64821;13.710;100.604;2023-07-24T02:31:50;7.45;;;2.60;;
76094;SDS011;64821;13.710;100.604;2023-07-24T02:32:56;5.87;;;2.10;;
76094;SDS011;64821;13.710;100.604;2023-07-24T02:33:59;8.93;;;2.60;;
76094;SDS011;64821;13.710;100.604;2023-07-24T02:35:03;5.80;;;2.50;;
76094;SDS011;64821;13.710;100.604;2023-07-24T02:36:08;7.57;;;2.40;;
76094;SDS011;64821;13.710;100.604;2023-07-24T02:37:12;7.55;;;2.45;;
76094;SDS011;64821;13.710;100.604;2023-07-24T02:38:15;6.97;;;2.40;;
76094;SDS011;64821;13.710;100.604;2023-07-24T02:39:19;9.55;;;2.55;;
76094;SDS011;64821;13.710;100.604;2023-07-24T02:40:23;6.45;;;2.35;;
76094;SDS011;64821;13.710;100.604;2023-07-24T02:41:27;7.82;;;2.28;;
76094;SDS011;64821;13.710;100.604;2023-07-24T02:42:31;7.57;;;2.65;;
76094;SDS011;64821;13.710;100.604;2023-07-24T02:43:34;6.57;;;2.60;;
76094;SDS011;64821;13.710;100.604;2023-07-24T02:44:38;5.88;;;2.13;;
76094;SDS011;64821;13.710;100.604;2023-07-24T02:45:44;7.13;;;2.50;;
76094;SDS011;64821;13.710;100.604;2023-07-24T02:46:47;7.97;;;2.67;;
76094;SDS011;64821;13.710;100.604;2023-07-24T02:47:51;6.78;;;2.45;;
76094;SDS011;64821;13.710;100.604;2023-07-24T02:48:55;7.20;;;2.50;;
76094;SDS011;64821;13.710;100.604;2023-07-24T02:49:59;7.43;;;2.60;;
76094;SDS011;64821;13.710;100.604;2023-07-24T02:51:02;6.35;;;2.40;;
76094;SDS011;64821;13.710;100.604;2023-07-24T02:52:06;6.50;;;2.30;;
76094;SDS011;64821;13.710;100.604;2023-07-24T02:53:10;8.07;;;3.00;;
76094;SDS011;64821;13.710;100.604;2023-07-24T02:54:14;6.60;;;2.50;;
76094;SDS011;64821;13.710;100.604;2023-07-24T02:55:17;6.85;;;2.40;;
76094;SDS011;64821;13.710;100.604;2023-07-24T02:56:21;7.28;;;2.55;;
76094;SDS011;64821;13.710;100.604;2023-07-24T02:57:25;6.63;;;2.50;;
76094;SDS011;64821;13.710;100.604;2023-07-24T02:58:29;8.30;;;2.60;;
76094;SDS011;64821;13.710;100.604;2023-07-24T02:59:32;6.63;;;2.57;;
76094;SDS011;64821;13.710;100.604;2023-07-24T03:00:36;6.93;;;2.83;;
76094;SDS011;64821;13.710;100.604;2023-07-24T03:01:41;7.65;;;2.90;;
76094;SDS011;64821;13.710;100.604;2023-07-24T03:02:45;7.18;;;2.88;;
76094;SDS011;64821;13.710;100.604;2023-07-24T03:03:49;8.80;;;3.03;;
76094;SDS011;64821;13.710;100.604;2023-07-24T03:04:53;7.53;;;2.80;;
76094;SDS011;64821;13.710;100.604;2023-07-24T03:05:57;6.55;;;2.83;;
76094;SDS011;64821;13.710;100.604;2023-07-24T03:07:00;6.97;;;2.83;;
76094;SDS011;64821;13.710;100.604;2023-07-24T03:08:04;9.43;;;2.80;;
76094;SDS011;64821;13.710;100.604;2023-07-24T03:09:08;8.60;;;2.80;;
76094;SDS011;64821;13.710;100.604;2023-07-24T03:10:11;7.13;;;2.60;;
76094;SDS011;64821;13.710;100.604;2023-07-24T03:11:15;7.03;;;2.88;;
76094;SDS011;64821;13.710;100.604;2023-07-24T03:12:19;7.00;;;2.65;;
76094;SDS011;64821;13.710;100.604;2023-07-24T03:13:23;8.40;;;2.63;;
76094;SDS011;64821;13.710;100.604;2023-07-24T03:14:26;8.15;;;2.70;;
76094;SDS011;64821;13.710;100.604;2023-07-24T03:15:30;7.93;;;2.70;;
76094;SDS011;64821;13.710;100.604;2023-07-24T03:16:34;7.25;;;2.75;;
76094;SDS011;64821;13.710;100.604;2023-07-24T03:17:39;7.43;;;2.50;;
76094;SDS011;64821;13.710;100.604;2023-07-24T03:18:43;6.43;;;2.60;;
76094;SDS011;64821;13.710;100.604;2023-07-24T03:19:47;8.15;;;3.00;;
76094;SDS011;64821;13.710;100.604;2023-07-24T03:20:51;9.00;;;2.80;;
76094;SDS011;64821;13.710;100.604;2023-07-24T03:21:55;6.80;;;2.70;;
76094;SDS011;64821;13.710;100.604;2023-07-24T03:22:59;7.68;;;2.65;;
76094;SDS011;64821;13.710;100.604;2023-07-24T03:24:03;8.63;;;2.50;;
76094;SDS011;64821;13.710;100.604;2023-07-24T03:25:07;6.90;;;2.88;;
76094;SDS011;64821;13.710;100.604;2023-07-24T03:26:11;8.37;;;3.10;;
76094;SDS011;64821;13.710;100.604;2023-07-24T03:27:15;7.40;;;2.63;;
76094;SDS011;64821;13.710;100.604;2023-07-24T03:28:19;9.13;;;3.10;;
76094;SDS011;64821;13.710;100.604;2023-07-24T03:29:22;8.25;;;2.90;;
76094;SDS011;64821;13.710;100.604;2023-07-24T03:30:26;8.32;;;2.60;;
76094;SDS011;64821;13.710;100.604;2023-07-24T03:31:30;7.10;;;2.57;;
76094;SDS011;64821;13.710;100.604;2023-07-24T03:32:35;6.43;;;2.70;;
76094;SDS011;64821;13.710;100.604;2023-07-24T03:33:41;7.78;;;2.80;;
76094;SDS011;64821;13.710;100.604;2023-07-24T03:34:45;6.68;;;2.60;;
76094;SDS011;64821;13.710;100.604;2023-07-24T03:35:49;7.13;;;2.88;;
76094;SDS011;64821;13.710;100.604;2023-07-24T03:36:52;8.40;;;2.73;;
76094;SDS011;64821;13.710;100.604;2023-07-24T03:37:56;7.30;;;2.70;;
76094;SDS011;64821;13.710;100.604;2023-07-24T03:39:00;7.53;;;2.58;;
76094;SDS011;64821;13.710;100.604;2023-07-24T03:40:04;7.13;;;2.58;;
76094;SDS011;64821;13.710;100.604;2023-07-24T03:41:08;7.65;;;2.60;;
76094;SDS011;64821;13.710;100.604;2023-07-24T03:42:24;8.57;;;2.70;;
76094;SDS011;64821;13.710;100.604;2023-07-24T03:43:29;7.90;;;2.88;;
76094;SDS011;64821;13.710;100.604;2023-07-24T03:44:32;7.28;;;2.80;;
76094;SDS011;64821;13.710;100.604;2023-07-24T03:45:36;8.02;;;2.63;;
76094;SDS011;64821;13.710;100.604;2023-07-24T03:46:40;8.35;;;2.70;;
76094;SDS011;64821;13.710;100.604;2023-07-24T03:47:44;7.93;;;2.73;;
76094;SDS011;64821;13.710;100.604;2023-07-24T03:48:49;8.90;;;2.60;;
76094;SDS011;64821;13.710;100.604;2023-07-24T03:49:53;7.43;;;2.50;;
76094;SDS011;64821;13.710;100.604;2023-07-24T03:51:00;7.72;;;2.38;;
76094;SDS011;64821;13.710;100.604;2023-07-24T03:52:04;8.50;;;2.53;;
76094;SDS011;64821;13.710;100.604;2023-07-24T03:53:08;7.13;;;2.33;;
76094;SDS011;64821;13.710;100.604;2023-07-24T03:54:12;7.13;;;2.70;;
76094;SDS011;64821;13.710;100.604;2023-07-24T03:55:15;7.32;;;2.80;;
76094;SDS011;64821;13.710;100.604;2023-07-24T03:56:19;6.72;;;2.72;;
76094;SDS011;64821;13.710;100.604;2023-07-24T03:57:23;6.60;;;2.47;;
76094;SDS011;64821;13.710;100.604;2023-07-24T03:58:27;6.60;;;2.37;;
76094;SDS011;64821;13.710;100.604;2023-07-24T03:59:31;8.77;;;2.53;;
76094;SDS011;64821;13.710;100.604;2023-07-24T04:00:34;7.13;;;2.63;;
76094;SDS011;64821;13.710;100.604;2023-07-24T04:01:38;8.45;;;2.92;;
76094;SDS011;64821;13.710;100.604;2023-07-24T04:02:42;8.98;;;3.00;;
76094;SDS011;64821;13.710;100.604;2023-07-24T04:03:46;6.23;;;2.50;;
76094;SDS011;64821;13.710;100.604;2023-07-24T04:04:51;7.85;;;2.67;;
76094;SDS011;64821;13.710;100.604;2023-07-24T04:05:55;8.43;;;3.03;;
76094;SDS011;64821;13.710;100.604;2023-07-24T04:06:59;7.93;;;3.10;;
76094;SDS011;64821;13.710;100.604;2023-07-24T04:08:03;7.40;;;2.90;;
76094;SDS011;64821;13.710;100.604;2023-07-24T04:09:07;8.83;;;3.03;;
76094;SDS011;64821;13.710;100.604;2023-07-24T04:10:11;7.55;;;3.10;;
76094;SDS011;64821;13.710;100.604;2023-07-24T04:11:14;8.55;;;2.95;;
76094;SDS011;64821;13.710;100.604;2023-07-24T04:12:18;7.50;;;2.83;;
76094;SDS011;64821;13.710;100.604;2023-07-24T04:13:22;8.65;;;3.28;;
76094;SDS011;64821;13.710;100.604;2023-07-24T04:14:25;9.13;;;3.03;;
76094;SDS011;64821;13.710;100.604;2023-07-24T04:15:29;7.90;;;2.45;;
76094;SDS011;64821;13.710;100.604;2023-07-24T04:16:33;9.75;;;3.38;;
76094;SDS011;64821;13.710;100.604;2023-07-24T04:17:37;7.78;;;2.80;;
76094;SDS011;64821;13.710;100.604;2023-07-24T04:18:41;7.55;;;3.03;;
76094;SDS011;64821;13.710;100.604;2023-07-24T04:19:45;6.90;;;2.90;;
76094;SDS011;64821;13.710;100.604;2023-07-24T04:20:50;7.80;;;2.78;;
76094;SDS011;64821;13.710;100.604;2023-07-24T04:21:54;9.90;;;3.00;;
76094;SDS011;64821;13.710;100.604;2023-07-24T04:22:57;10.55;;;3.05;;
76094;SDS011;64821;13.710;100.604;2023-07-24T04:24:01;6.93;;;2.50;;
76094;SDS011;64821;13.710;100.604;2023-07-24T04:25:05;8.27;;;3.17;;
76094;SDS011;64821;13.710;100.604;2023-07-24T04:26:10;11.68;;;3.50;;
76094;SDS011;64821;13.710;100.604;2023-07-24T04:27:13;7.43;;;3.10;;
76094;SDS011;64821;13.710;100.604;2023-07-24T04:28:17;7.32;;;2.92;;
76094;SDS011;64821;13.710;100.604;2023-07-24T04:29:21;9.35;;;3.17;;
76094;SDS011;64821;13.710;100.604;2023-07-24T04:30:25;7.47;;;3.13;;
76094;SDS011;64821;13.710;100.604;2023-07-24T04:31:28;8.75;;;3.35;;
76094;SDS011;64821;13.710;100.604;2023-07-24T04:32:32;7.68;;;3.20;;
76094;SDS011;64821;13.710;100.604;2023-07-24T04:33:36;8.80;;;3.33;;
76094;SDS011;64821;13.710;100.604;2023-07-24T04:34:40;8.10;;;3.20;;
76094;SDS011;64821;13.710;100.604;2023-07-24T04:35:43;8.10;;;2.90;;
76094;SDS011;64821;13.710;100.604;2023-07-24T04:36:52;8.38;;;2.70;;
76094;SDS011;64821;13.710;100.604;2023-07-24T04:37:56;7.82;;;3.25;;
76094;SDS011;64821;13.710;100.604;2023-07-24T04:39:00;9.60;;;3.00;;
76094;SDS011;64821;13.710;100.604;2023-07-24T04:40:04;10.20;;;3.25;;
76094;SDS011;64821;13.710;100.604;2023-07-24T04:41:08;8.80;;;3.20;;
76094;SDS011;64821;13.710;100.604;2023-07-24T04:42:12;10.57;;;2.95;;
76094;SDS011;64821;13.710;100.604;2023-07-24T04:43:16;9.90;;;3.22;;
76094;SDS011;64821;13.710;100.604;2023-07-24T04:44:19;7.45;;;2.92;;
76094;SDS011;64821;13.710;100.604;2023-07-24T04:45:23;7.78;;;2.90;;
76094;SDS011;64821;13.710;100.604;2023-07-24T04:46:27;7.67;;;3.00;;
76094;SDS011;64821;13.710;100.604;2023-07-24T04:47:31;8.15;;;3.22;;
76094;SDS011;64821;13.710;100.604;2023-07-24T04:48:35;8.02;;;3.17;;
76094;SDS011;64821;13.710;100.604;2023-07-24T04:49:39;8.75;;;3.20;;
76094;SDS011;64821;13.710;100.604;2023-07-24T04:50:42;8.43;;;3.40;;
76094;SDS011;64821;13.710;100.604;2023-07-24T04:51:46;8.07;;;3.00;;
76094;SDS011;64821;13.710;100.604;2023-07-24T04:52:51;10.55;;;3.50;;
76094;SDS011;64821;13.710;100.604;2023-07-24T04:53:55;8.90;;;3.25;;
76094;SDS011;64821;13.710;100.604;2023-07-24T04:54:59;7.75;;;3.08;;
76094;SDS011;64821;13.710;100.604;2023-07-24T04:56:03;8.77;;;3.20;;
76094;SDS011;64821;13.710;100.604;2023-07-24T04:57:07;7.27;;;3.00;;
76094;SDS011;64821;13.710;100.604;2023-07-24T04:58:11;8.05;;;3.20;;
76094;SDS011;64821;13.710;100.604;2023-07-24T04:59:14;7.90;;;3.20;;
76094;SDS011;64821;13.710;100.604;2023-07-24T05:00:18;7.05;;;3.28;;
76094;SDS011;64821;13.710;100.604;2023-07-24T05:01:22;7.65;;;3.50;;
76094;SDS011;64821;13.710;100.604;2023-07-24T05:02:26;8.53;;;3.70;;
76094;SDS011;64821;13.710;100.604;2023-07-24T05:03:29;9.88;;;3.83;;
76094;SDS011;64821;13.710;100.604;2023-07-24T05:04:33;9.27;;;3.97;;
76094;SDS011;64821;13.710;100.604;2023-07-24T05:05:37;8.02;;;4.20;;
76094;SDS011;64821;13.710;100.604;2023-07-24T05:06:45;9.73;;;3.85;;
76094;SDS011;64821;13.710;100.604;2023-07-24T05:07:51;9.93;;;3.77;;
76094;SDS011;64821;13.710;100.604;2023-07-24T05:08:55;8.93;;;4.43;;
76094;SDS011;64821;13.710;100.604;2023-07-24T05:09:58;9.05;;;4.00;;
76094;SDS011;64821;13.710;100.604;2023-07-24T05:11:05;9.30;;;3.80;;
76094;SDS011;64821;13.710;100.604;2023-07-24T05:12:09;10.23;;;4.00;;
76094;SDS011;64821;13.710;100.604;2023-07-24T05:13:12;9.10;;;4.00;;
76094;SDS011;64821;13.710;100.604;2023-07-24T05:14:16;10.00;;;3.90;;
76094;SDS011;64821;13.710;100.604;2023-07-24T05:15:20;9.27;;;4.00;;
76094;SDS011;64821;13.710;100.604;2023-07-24T05:16:24;7.93;;;3.97;;
76094;SDS011;64821;13.710;100.604;2023-07-24T05:17:27;8.70;;;3.95;;
76094;SDS011;64821;13.710;100.604;2023-07-24T05:18:31;8.60;;;4.03;;
76094;SDS011;64821;13.710;100.604;2023-07-24T05:19:35;9.50;;;4.78;;
76094;SDS011;64821;13.710;100.604;2023-07-24T05:20:42;9.75;;;4.40;;
76094;SDS011;64821;13.710;100.604;2023-07-24T05:21:47;8.38;;;4.40;;
76094;SDS011;64821;13.710;100.604;2023-07-24T05:22:52;10.40;;;4.22;;
76094;SDS011;64821;13.710;100.604;2023-07-24T05:23:56;10.13;;;4.30;;
76094;SDS011;64821;13.710;100.604;2023-07-24T05:25:00;9.05;;;4.53;;
76094;SDS011;64821;13.710;100.604;2023-07-24T05:26:03;11.10;;;4.65;;
76094;SDS011;64821;13.710;100.604;2023-07-24T05:27:07;10.10;;;4.53;;
76094;SDS011;64821;13.710;100.604;2023-07-24T05:28:11;10.18;;;4.68;;
76094;SDS011;64821;13.710;100.604;2023-07-24T05:29:15;10.17;;;4.57;;
76094;SDS011;64821;13.710;100.604;2023-07-24T05:30:18;8.48;;;4.50;;
76094;SDS011;64821;13.710;100.604;2023-07-24T05:31:22;8.65;;;4.38;;
76094;SDS011;64821;13.710;100.604;2023-07-24T05:32:26;8.82;;;4.50;;
76094;SDS011;64821;13.710;100.604;2023-07-24T05:33:30;9.00;;;4.60;;
76094;SDS011;64821;13.710;100.604;2023-07-24T05:34:34;8.83;;;4.63;;
76094;SDS011;64821;13.710;100.604;2023-07-24T05:35:37;9.45;;;4.05;;
76094;SDS011;64821;13.710;100.604;2023-07-24T05:36:41;9.07;;;4.10;;
76094;SDS011;64821;13.710;100.604;2023-07-24T05:37:45;8.60;;;3.42;;
76094;SDS011;64821;13.710;100.604;2023-07-24T05:38:50;8.40;;;3.53;;
76094;SDS011;64821;13.710;100.604;2023-07-24T05:39:54;9.87;;;3.60;;
76094;SDS011;64821;13.710;100.604;2023-07-24T05:40:59;7.50;;;3.40;;
76094;SDS011;64821;13.710;100.604;2023-07-24T05:42:03;8.55;;;3.38;;
76094;SDS011;64821;13.710;100.604;2023-07-24T05:43:07;9.10;;;3.38;;
76094;SDS011;64821;13.710;100.604;2023-07-24T05:44:11;10.15;;;3.35;;
76094;SDS011;64821;13.710;100.604;2023-07-24T05:45:15;9.50;;;3.30;;
76094;SDS011;64821;13.710;100.604;2023-07-24T05:46:19;7.95;;;3.20;;
76094;SDS011;64821;13.710;100.604;2023-07-24T05:47:23;7.88;;;3.00;;
76094;SDS011;64821;13.710;100.604;2023-07-24T05:48:26;7.10;;;2.90;;
76094;SDS011;64821;13.710;100.604;2023-07-24T05:49:30;9.85;;;3.40;;
76094;SDS011;64821;13.710;100.604;2023-07-24T05:50:34;9.60;;;3.10;;
76094;SDS011;64821;13.710;100.604;2023-07-24T05:51:38;8.95;;;2.92;;
76094;SDS011;64821;13.710;100.604;2023-07-24T05:52:41;8.32;;;3.00;;
76094;SDS011;64821;13.710;100.604;2023-07-24T05:53:45;8.40;;;3.03;;
76094;SDS011;64821;13.710;100.604;2023-07-24T05:54:53;8.77;;;3.40;;
76094;SDS011;64821;13.710;100.604;2023-07-24T05:55:57;9.83;;;3.27;;
76094;SDS011;64821;13.710;100.604;2023-07-24T05:57:02;10.77;;;3.55;;
76094;SDS011;64821;13.710;100.604;2023-07-24T05:58:06;7.93;;;3.10;;
76094;SDS011;64821;13.710;100.604;2023-07-24T05:59:09;8.77;;;3.00;;
76094;SDS011;64821;13.710;100.604;2023-07-24T06:00:13;6.72;;;3.05;;
76094;SDS011;64821;13.710;100.604;2023-07-24T06:01:17;8.73;;;3.30;;
76094;SDS011;64821;13.710;100.604;2023-07-24T06:02:21;7.18;;;3.00;;
76094;SDS011;64821;13.710;100.604;2023-07-24T06:03:25;8.20;;;3.50;;
76094;SDS011;64821;13.710;100.604;2023-07-24T06:04:29;8.65;;;3.60;;
76094;SDS011;64821;13.710;100.604;2023-07-24T06:05:33;9.43;;;3.60;;
76094;SDS011;64821;13.710;100.604;2023-07-24T06:06:37;8.73;;;3.40;;
76094;SDS011;64821;13.710;100.604;2023-07-24T06:07:41;8.52;;;3.50;;
76094;SDS011;64821;13.710;100.604;2023-07-24T06:08:45;8.07;;;3.08;;
76094;SDS011;64821;13.710;100.604;2023-07-24T06:09:48;8.27;;;3.10;;
76094;SDS011;64821;13.710;100.604;2023-07-24T06:10:54;8.20;;;3.10;;
76094;SDS011;64821;13.710;100.604;2023-07-24T06:11:57;7.73;;;3.17;;
76094;SDS011;64821;13.710;100.604;2023-07-24T06:13:01;7.30;;;3.30;;
76094;SDS011;64821;13.710;100.604;2023-07-24T06:14:05;7.40;;;3.17;;
76094;SDS011;64821;13.710;100.604;2023-07-24T06:15:09;9.60;;;3.40;;
76094;SDS011;64821;13.710;100.604;2023-07-24T06:16:13;10.48;;;3.63;;